Astigiana

IT-0042 · 皮埃蒙特, 意大利

使用的METAR站距离机场52 km。
罗盘
风向 的 Astigiana 18/36
风: 3 kt, 1 beaufort

3 kt

改变
0 ft 1.000 2.000 3.000 4.000 5.000
VV 0
METAR LIMK 281055Z VRB03KT 0100 -RA FG VV/// 07/07 Q1017 RMK VAL INVIS VIS MIN 0100

METAR Astigiana - IT-0042

Astigiana是,意大利中的小机场。 该机场位于纬度44,88830和经度8,35534。 该机场有一条跑道: 18/36. 这个机场没有ICAO代码,我们使用IT-0042作为参考。 机场在Milano FIR中。

该航空气象观测是针对Torino / Bric Della Croce在2024年2月28日 11:55, 当地时间进行的。

机场观察

可变方向的风很小或没有风。

可见度为100 m。

垂直能见度为0 ft 没有观察到天花板。

当前天气为光 雨, 多雾路段。 温度为7 °C,阵风为5 °C。 露点为7 °C,相对湿度为100%。 海平面上的气压为1017 hPa (QNH)。

白天

今天,太阳从07:06升起,在18:11降落。 这适用于Astigiana,世界夏令时可能有所不同。 当地时间与世界标准时间之间的时差为+1 小时。 当前,没有夏令时有效。

公司介绍

我们没有关于这个机场的公司信息。

体会

到Vliegles.nl去找飞行课程,跳伞和其他飞行体验。 浏览页面,了解Astigiana附近所有可用的活动。 你也可以使用搜索功能来寻找你所在地附近的特定飞行课程、跳伞或其他飞行体验。

警示语

垂直能见度为0 ft。

跑道

Id 标题 侧风 逆风 侧风 %
18/36 185°-005° 3 kt 9 %

逆风成分最大的方向会被突出显示,并用于横风计算。 这并不一定意味着这个方向在使用。

乌云

0 ft VV 垂直能见度

温度 & 天气

天气 光 雨
多雾路段
温度 7 °C
露点 7 °C
相对湿度 100%
风寒 5 °C
Kp-index 2 (0-9)

评论

VAL INVIS VIS MIN 0100

白天

日出
07:09
中午
12:41
日落
18:13 (5:24)

小工具

你想在你的网站上有一个关于Astigiana的当前航空天气(METAR)的小部件吗?

显示HTML代码
?>